Time;durP1;ratioP1;P1;durP2;ratioP2;P2;SDS_P1;SDS_P2;PMS_P1;PMS_P2;Temp;Humidity;BMP_temperature;BMP_pressure;BME280_temperature;BME280_humidity;BME280_pressure;Samples;Min_cycle;Max_cycle;Signal;HPM_P1;HPM_P2
2022/05/13 00:02:06;;;;;;;6.32;3.10;;;11.40;99.90;;;;;;5072436;28;20119;-74
2022/05/13 00:04:32;;;;;;;10.55;3.70;;;11.40;99.90;;;;;;5091981;28;20462;-75
2022/05/13 00:06:57;;;;;;;11.73;3.25;;;11.50;99.90;;;;;;5091719;28;20376;-74
2022/05/13 00:09:56;;;;;;;9.63;2.85;;;11.50;99.90;;;;;;5092189;28;20051;-75
2022/05/13 00:12:09;;;;;;;11.38;2.58;;;11.60;99.90;;;;;;5090506;28;20081;-74
2022/05/13 00:14:35;;;;;;;7.95;3.08;;;11.50;99.90;;;;;;5092462;28;20051;-75
2022/05/13 00:17:00;;;;;;;13.57;3.28;;;11.50;99.90;;;;;;5090491;28;20040;-74
2022/05/13 00:19:26;;;;;;;11.52;3.58;;;11.50;99.90;;;;;;5092159;28;20048;-75
2022/05/13 00:21:51;;;;;;;6.38;2.38;;;11.50;99.90;;;;;;5091677;28;20063;-74
2022/05/13 00:24:17;;;;;;;12.73;3.10;;;11.50;99.90;;;;;;5074925;28;20079;-74
2022/05/13 00:26:43;;;;;;;14.32;3.42;;;11.50;99.90;;;;;;5092272;28;20036;-75
2022/05/13 00:29:08;;;;;;;10.70;2.72;;;11.60;99.90;;;;;;5092248;28;20075;-71
2022/05/13 00:31:34;;;;;;;13.77;3.13;;;11.60;99.90;;;;;;5092090;28;20096;-74
2022/05/13 00:34:01;;;;;;;12.00;2.78;;;11.50;99.90;;;;;;5063526;28;20059;-71
2022/05/13 00:36:27;;;;;;;11.02;3.00;;;11.60;99.90;;;;;;5091202;28;20510;-72
2022/05/13 00:38:53;;;;;;;12.35;2.88;;;11.60;99.90;;;;;;5073188;28;20056;-73
2022/05/13 00:41:18;;;;;;;12.80;2.60;;;11.60;99.90;;;;;;5073480;28;20048;-75
2022/05/13 00:43:51;;;;;;;11.18;3.10;;;11.60;99.90;;;;;;5089772;28;20040;-73
2022/05/13 00:46:18;;;;;;;13.48;3.15;;;11.60;99.90;;;;;;5090597;28;20059;-72
2022/05/13 00:48:45;;;;;;;11.90;2.92;;;11.60;99.90;;;;;;5073263;28;20044;-72
2022/05/13 00:51:14;;;;;;;11.73;2.70;;;11.70;99.90;;;;;;5091356;28;20220;-75
2022/05/13 00:53:40;;;;;;;12.23;3.10;;;11.70;99.90;;;;;;5091135;28;20836;-73
2022/05/13 00:56:06;;;;;;;7.40;2.22;;;11.70;99.90;;;;;;5089357;28;20039;-75
2022/05/13 00:58:37;;;;;;;11.57;2.95;;;11.70;99.90;;;;;;5091442;28;20436;-75
2022/05/13 01:01:03;;;;;;;8.57;2.42;;;11.70;99.90;;;;;;5090871;28;20708;-72
2022/05/13 01:03:30;;;;;;;10.13;2.88;;;11.70;99.90;;;;;;5091157;28;20056;-73
2022/05/13 01:06:01;;;;;;;11.10;3.47;;;11.70;99.90;;;;;;5089021;28;20040;-74
2022/05/13 01:08:31;;;;;;;14.48;3.10;;;11.70;99.90;;;;;;5091008;28;20390;-72
2022/05/13 01:10:57;;;;;;;12.77;3.00;;;11.70;99.90;;;;;;5091250;28;20056;-73
2022/05/13 01:13:28;;;;;;;12.50;3.05;;;11.70;99.90;;;;;;5091164;28;20044;-74
2022/05/13 01:15:53;;;;;;;10.05;3.38;;;11.70;99.90;;;;;;5070830;28;20101;-76
2022/05/13 01:18:35;;;;;;;10.48;3.00;;;11.70;99.90;;;;;;5070953;28;20056;-72
2022/05/13 01:21:02;;;;;;;10.30;3.15;;;11.70;99.90;;;;;;5072277;28;20403;-71
2022/05/13 01:23:31;;;;;;;14.85;3.95;;;11.70;99.90;;;;;;5091247;28;20104;-74
2022/05/13 01:26:01;;;;;;;16.00;3.50;;;11.70;99.90;;;;;;5090464;28;20048;-68
2022/05/13 01:28:37;;;;;;;15.68;3.55;;;11.70;99.90;;;;;;5074604;28;20559;-69
2022/05/13 01:31:10;;;;;;;10.73;3.35;;;11.80;99.90;;;;;;5090858;28;20117;-70
2022/05/13 01:33:37;;;;;;;13.77;4.10;;;11.80;99.90;;;;;;5073072;28;20051;-68
2022/05/13 01:36:05;;;;;;;14.65;3.25;;;11.80;99.90;;;;;;5091058;28;20051;-67
2022/05/13 01:38:33;;;;;;;15.18;3.13;;;11.70;99.90;;;;;;5089182;28;20133;-68
2022/05/13 01:40:59;;;;;;;15.32;3.42;;;11.70;99.90;;;;;;5090676;28;20051;-71
2022/05/13 01:43:26;;;;;;;12.60;3.80;;;12.00;99.90;;;;;;5072547;28;20491;-68
2022/05/13 01:45:53;;;;;;;14.13;3.40;;;11.80;99.90;;;;;;5072291;28;20574;-75
2022/05/13 01:48:19;;;;;;;14.93;3.50;;;11.70;99.90;;;;;;5089104;28;20055;-74
2022/05/13 01:50:44;;;;;;;13.98;3.40;;;11.70;99.90;;;;;;5072166;28;20048;-74
2022/05/13 01:53:11;;;;;;;13.63;3.95;;;11.70;99.90;;;;;;5090572;28;20048;-73
2022/05/13 01:55:42;;;;;;;11.07;4.32;;;11.70;99.90;;;;;;5088545;28;20036;-74
2022/05/13 01:58:12;;;;;;;14.32;3.47;;;11.80;99.90;;;;;;5090210;28;20055;-75
2022/05/13 02:00:38;;;;;;;10.00;3.60;;;11.80;99.90;;;;;;5068353;28;20059;-73
2022/05/13 02:05:48;;;;;;;17.20;4.20;;;11.80;99.90;;;;;;5067789;28;20097;-74
2022/05/13 02:08:15;;;;;;;12.75;3.58;;;11.80;99.90;;;;;;5070383;28;20400;-76
2022/05/13 02:10:42;;;;;;;11.88;3.78;;;11.80;99.90;;;;;;5069769;28;20033;-76
2022/05/13 02:13:07;;;;;;;20.40;4.80;;;11.80;99.90;;;;;;5067404;28;20050;-75
2022/05/13 02:15:33;;;;;;;14.80;4.30;;;11.80;99.90;;;;;;5088567;28;20394;-73
2022/05/13 02:17:59;;;;;;;12.38;3.72;;;11.80;99.90;;;;;;5088414;28;20059;-72
2022/05/13 02:20:25;;;;;;;15.55;3.80;;;11.80;99.90;;;;;;5051105;28;20040;-72
2022/05/13 02:22:50;;;;;;;11.68;3.78;;;11.80;99.90;;;;;;5090271;28;20442;-75
2022/05/13 02:25:16;;;;;;;18.90;3.40;;;11.80;99.90;;;;;;5089762;28;20131;-76
2022/05/13 02:27:42;;;;;;;13.70;3.90;;;11.80;99.90;;;;;;5066943;28;20079;-75
2022/05/13 02:30:09;;;;;;;16.13;4.30;;;11.80;99.90;;;;;;5090195;28;20098;-74
2022/05/13 02:32:34;;;;;;;15.50;3.78;;;11.80;99.90;;;;;;5089486;28;20044;-74
2022/05/13 02:35:00;;;;;;;15.93;4.50;;;11.80;99.90;;;;;;5071887;28;20052;-75
2022/05/13 02:37:26;;;;;;;16.45;3.80;;;11.80;99.90;;;;;;5069952;28;20044;-75
2022/05/13 02:39:52;;;;;;;13.98;4.35;;;11.80;99.90;;;;;;5088724;28;20505;-75
2022/05/13 02:42:17;;;;;;;14.50;4.28;;;11.80;99.90;;;;;;5088711;28;20044;-76
2022/05/13 02:44:44;;;;;;;15.52;5.00;;;11.90;99.90;;;;;;5088915;28;20047;-77
2022/05/13 02:47:10;;;;;;;18.58;4.07;;;11.90;99.90;;;;;;5088310;28;20047;-76
2022/05/13 02:49:36;;;;;;;13.35;3.85;;;11.90;99.90;;;;;;5070662;28;20045;-75
2022/05/13 02:52:02;;;;;;;16.08;3.97;;;11.80;99.90;;;;;;5069698;28;20048;-76
2022/05/13 02:54:27;;;;;;;20.15;4.63;;;11.80;99.90;;;;;;5069868;28;20086;-76
2022/05/13 02:56:53;;;;;;;15.57;3.88;;;11.90;99.90;;;;;;5070776;28;20483;-75
2022/05/13 02:59:19;;;;;;;14.07;3.90;;;11.90;99.90;;;;;;5069566;28;20048;-71
2022/05/13 03:01:45;;;;;;;23.40;4.40;;;11.80;99.90;;;;;;5089107;28;20040;-69
2022/05/13 03:04:10;;;;;;;20.15;4.57;;;11.90;99.90;;;;;;5089698;28;20131;-68
2022/05/13 03:06:36;;;;;;;16.67;4.82;;;11.90;99.90;;;;;;5089967;28;20130;-72
2022/05/13 03:09:02;;;;;;;21.88;4.10;;;11.90;99.90;;;;;;5089845;28;20040;-71
2022/05/13 03:11:29;;;;;;;17.35;4.85;;;11.90;99.90;;;;;;5092967;28;20055;-74
2022/05/13 03:13:55;;;;;;;17.45;4.88;;;11.90;99.90;;;;;;5091255;28;20047;-72
2022/05/13 03:16:23;;;;;;;18.52;4.50;;;11.90;99.90;;;;;;5087809;28;20097;-73
2022/05/13 03:18:54;;;;;;;23.50;4.38;;;11.90;99.90;;;;;;5086645;28;20118;-75
2022/05/13 03:21:22;;;;;;;15.82;4.30;;;12.30;99.90;;;;;;5075275;28;20391;-75
2022/05/13 03:23:48;;;;;;;20.35;5.10;;;11.90;99.90;;;;;;5093347;28;20046;-73
2022/05/13 03:26:15;;;;;;;22.13;4.75;;;12.10;99.90;;;;;;5078094;28;20127;-75
2022/05/13 03:28:41;;;;;;;17.33;4.10;;;11.90;99.90;;;;;;5071548;28;20548;-75
2022/05/13 03:31:07;;;;;;;16.23;4.88;;;11.90;99.90;;;;;;5074175;28;20076;-72
2022/05/13 03:33:33;;;;;;;18.70;3.83;;;11.90;99.90;;;;;;5072989;28;20060;-71
2022/05/13 03:35:59;;;;;;;17.00;4.20;;;11.90;99.90;;;;;;5071452;28;20504;-72
2022/05/13 03:38:25;;;;;;;16.10;4.25;;;11.90;99.90;;;;;;5075211;28;20098;-74
2022/05/13 03:40:50;;;;;;;21.15;4.63;;;12.00;99.90;;;;;;5091340;28;20047;-70
2022/05/13 03:43:19;;;;;;;23.05;4.50;;;11.90;99.90;;;;;;5091937;28;20055;-75
2022/05/13 03:45:45;;;;;;;18.60;4.35;;;12.00;99.90;;;;;;5088738;28;20048;-75
2022/05/13 03:48:11;;;;;;;21.80;5.13;;;11.90;99.90;;;;;;5072838;28;20048;-76
2022/05/13 03:50:40;;;;;;;20.98;5.07;;;11.90;99.90;;;;;;5071170;28;20389;-70
2022/05/13 03:53:06;;;;;;;21.42;5.03;;;11.90;99.90;;;;;;5091140;28;20047;-75
2022/05/13 03:55:33;;;;;;;18.00;4.78;;;12.00;99.90;;;;;;5072711;28;20075;-76
2022/05/13 03:57:59;;;;;;;21.38;4.53;;;11.90;99.90;;;;;;5073987;28;20819;-73
2022/05/13 04:00:25;;;;;;;20.38;5.32;;;12.00;99.90;;;;;;5092273;28;20048;-74
2022/05/13 04:02:51;;;;;;;18.95;5.75;;;12.00;99.90;;;;;;5091071;28;20051;-75
2022/05/13 04:10:46;;;;;;;17.77;5.03;;;12.00;99.90;;;;;;5092159;28;20044;-74
2022/05/13 04:16:08;;;;;;;18.88;4.63;;;12.00;99.90;;;;;;5075968;28;20037;-75
2022/05/13 04:18:42;;;;;;;21.30;5.13;;;12.00;99.90;;;;;;5071919;28;20048;-75
2022/05/13 04:21:13;;;;;;;22.55;5.15;;;12.00;99.90;;;;;;5070832;28;20046;-75
2022/05/13 04:23:42;;;;;;;22.70;5.38;;;12.10;99.90;;;;;;5073418;28;20048;-73
2022/05/13 04:26:11;;;;;;;28.92;5.30;;;12.20;99.90;;;;;;5091953;28;20122;-75
2022/05/13 04:28:38;;;;;;;24.70;4.82;;;12.00;99.90;;;;;;5073973;28;20078;-73
2022/05/13 04:31:04;;;;;;;23.05;4.35;;;12.00;99.90;;;;;;5092174;28;20039;-76
2022/05/13 04:33:29;;;;;;;19.77;4.97;;;12.20;99.90;;;;;;5086420;28;20110;-72
2022/05/13 04:35:55;;;;;;;15.45;4.47;;;12.10;99.90;;;;;;5073899;28;20082;-74
2022/05/13 04:38:21;;;;;;;24.83;4.45;;;12.00;99.90;;;;;;5092062;28;20109;-74
2022/05/13 04:40:47;;;;;;;22.83;4.72;;;12.10;99.90;;;;;;5075822;28;20079;-75
2022/05/13 04:43:12;;;;;;;23.23;4.50;;;12.10;99.90;;;;;;5071597;28;20368;-67
2022/05/13 04:45:38;;;;;;;16.23;4.10;;;12.10;99.90;;;;;;5072372;28;20098;-72
2022/05/13 04:48:15;;;;;;;20.83;4.25;;;12.10;99.90;;;;;;5071408;28;20449;-72
2022/05/13 04:50:51;;;;;;;23.15;4.60;;;12.10;99.90;;;;;;5071460;28;20092;-74
2022/05/13 04:53:25;;;;;;;17.80;4.30;;;12.10;99.90;;;;;;5070222;28;20042;-73
2022/05/13 04:55:52;;;;;;;15.30;3.75;;;12.10;99.90;;;;;;5060023;28;20491;-76
2022/05/13 04:58:18;;;;;;;23.10;4.03;;;12.20;99.90;;;;;;5062887;28;20099;-74
2022/05/13 05:00:46;;;;;;;16.17;3.88;;;12.10;99.90;;;;;;5070853;28;20055;-72
2022/05/13 05:03:12;;;;;;;19.02;4.35;;;12.20;99.90;;;;;;5071877;28;20119;-76
2022/05/13 05:05:38;;;;;;;17.45;3.42;;;12.10;99.90;;;;;;5078162;28;20199;-75
2022/05/13 05:08:04;;;;;;;15.65;3.40;;;12.20;99.90;;;;;;5071109;28;20055;-75
2022/05/13 05:10:29;;;;;;;19.75;3.10;;;12.20;99.90;;;;;;5071082;28;20123;-76
2022/05/13 05:12:56;;;;;;;16.27;3.50;;;12.30;99.90;;;;;;5083004;28;20563;-77
2022/05/13 05:15:23;;;;;;;13.85;2.42;;;12.30;99.90;;;;;;5090349;28;20040;-72
2022/05/13 05:17:49;;;;;;;15.68;2.90;;;12.30;99.90;;;;;;5071782;28;20078;-75
2022/05/13 05:20:15;;;;;;;16.15;2.78;;;12.30;99.90;;;;;;5071100;28;20048;-76
2022/05/13 05:22:44;;;;;;;10.77;2.42;;;12.40;99.90;;;;;;5053088;28;20764;-75
2022/05/13 05:25:11;;;;;;;11.75;3.60;;;12.40;99.90;;;;;;5070942;28;20102;-74
2022/05/13 05:27:36;;;;;;;12.23;2.78;;;12.60;99.90;;;;;;5081605;28;20109;-75
2022/05/13 05:30:04;;;;;;;7.28;1.75;;;12.40;99.90;;;;;;5089835;28;20056;-72
2022/05/13 05:32:30;;;;;;;13.07;2.13;;;12.50;99.90;;;;;;5072336;28;20083;-73
2022/05/13 05:34:55;;;;;;;18.98;2.90;;;12.50;99.90;;;;;;5090897;28;20071;-74
2022/05/13 05:37:21;;;;;;;11.55;2.22;;;12.60;99.90;;;;;;5066746;28;20098;-71
2022/05/13 05:39:46;;;;;;;9.00;2.00;;;12.60;99.90;;;;;;5070614;28;20036;-76
2022/05/13 05:42:12;;;;;;;10.10;2.15;;;12.60;99.90;;;;;;5084050;28;20047;-75
2022/05/13 05:44:38;;;;;;;10.57;2.38;;;12.60;99.90;;;;;;5071999;28;20411;-75
2022/05/13 05:47:04;;;;;;;10.13;2.10;;;12.60;99.90;;;;;;5071892;28;20427;-72
2022/05/13 05:49:30;;;;;;;11.20;2.15;;;12.70;99.90;;;;;;5071242;28;20052;-74
2022/05/13 05:51:56;;;;;;;14.02;2.15;;;12.70;99.90;;;;;;5070259;28;20048;-73
2022/05/13 05:57:13;;;;;;;7.97;1.63;;;12.90;99.90;;;;;;4989254;28;20527;-72
2022/05/13 05:59:40;;;;;;;10.30;1.90;;;12.70;99.90;;;;;;5003097;28;20132;-77
2022/05/13 06:02:07;;;;;;;12.63;2.17;;;12.70;99.90;;;;;;4991124;28;20065;-75
2022/05/13 06:04:32;;;;;;;10.25;1.85;;;12.80;99.90;;;;;;5007994;28;20050;-76
2022/05/13 06:06:59;;;;;;;8.63;1.95;;;12.80;99.90;;;;;;5007523;28;20149;-75
2022/05/13 06:09:25;;;;;;;14.73;2.03;;;12.80;99.90;;;;;;4989883;28;20201;-77
2022/05/13 06:11:50;;;;;;;13.77;2.20;;;12.90;99.90;;;;;;4991345;28;20256;-76
2022/05/13 06:14:17;;;;;;;9.30;2.20;;;12.80;99.90;;;;;;5008004;28;20409;-76
2022/05/13 06:16:43;;;;;;;12.05;2.10;;;12.90;99.90;;;;;;5007538;28;20064;-74
2022/05/13 06:19:08;;;;;;;6.57;1.88;;;13.10;99.90;;;;;;4989993;28;20669;-77
2022/05/13 06:21:36;;;;;;;9.23;2.25;;;12.90;99.90;;;;;;4988919;28;20058;-76
2022/05/13 06:24:02;;;;;;;14.35;2.33;;;13.00;99.90;;;;;;5006486;28;20061;-76
2022/05/13 06:26:28;;;;;;;12.43;2.08;;;13.00;99.90;;;;;;5007679;28;20081;-75
2022/05/13 06:28:54;;;;;;;15.68;2.25;;;13.00;99.90;;;;;;5007741;28;20049;-75
2022/05/13 06:31:20;;;;;;;12.38;1.85;;;13.10;99.90;;;;;;5006008;28;20136;-75
2022/05/13 06:33:47;;;;;;;6.50;1.85;;;13.10;99.90;;;;;;5027599;28;20069;-76
2022/05/13 06:36:13;;;;;;;11.73;2.22;;;13.20;99.90;;;;;;5069891;28;20110;-74
2022/05/13 06:38:39;;;;;;;11.93;2.40;;;13.20;99.90;;;;;;5070865;28;20052;-76
2022/05/13 06:41:05;;;;;;;8.95;2.40;;;13.20;99.90;;;;;;5053078;28;20041;-76
2022/05/13 06:43:31;;;;;;;10.32;1.75;;;13.20;99.90;;;;;;5069129;28;20376;-75
2022/05/13 06:45:58;;;;;;;11.50;1.90;;;13.30;99.90;;;;;;5051415;28;20051;-76
2022/05/13 06:48:24;;;;;;;6.68;2.50;;;13.50;99.90;;;;;;5069396;28;20052;-74
2022/05/13 06:50:50;;;;;;;10.30;1.73;;;13.30;99.90;;;;;;5071009;28;20082;-76
2022/05/13 06:53:20;;;;;;;9.60;1.65;;;13.40;99.90;;;;;;5051041;28;20064;-76
2022/05/13 06:55:46;;;;;;;8.88;1.75;;;13.40;99.90;;;;;;5051613;28;20161;-76
2022/05/13 06:58:14;;;;;;;7.80;2.17;;;13.70;99.90;;;;;;5069409;28;20056;-75
2022/05/13 07:00:40;;;;;;;8.15;1.90;;;13.60;99.90;;;;;;5072317;28;20384;-76
2022/05/13 07:03:07;;;;;;;8.35;1.80;;;13.50;99.90;;;;;;5089233;28;20143;-74
2022/05/13 07:05:33;;;;;;;11.63;1.90;;;13.50;99.90;;;;;;5089590;28;20050;-73
2022/05/13 07:07:59;;;;;;;9.63;1.73;;;13.50;99.90;;;;;;5089292;28;20056;-76
2022/05/13 07:10:24;;;;;;;6.13;1.75;;;13.60;99.90;;;;;;5087945;28;20047;-70
2022/05/13 07:12:50;;;;;;;12.07;2.15;;;13.60;99.90;;;;;;5089513;28;20059;-76
2022/05/13 07:15:18;;;;;;;7.72;2.17;;;13.70;99.90;;;;;;5071257;28;20048;-72
2022/05/13 07:17:44;;;;;;;11.15;2.08;;;13.80;99.90;;;;;;5089463;28;20043;-74
2022/05/13 07:20:11;;;;;;;9.23;2.10;;;13.80;99.90;;;;;;5089370;28;20468;-74
2022/05/13 07:22:37;;;;;;;10.60;2.88;;;13.80;99.90;;;;;;5052766;28;20046;-76
2022/05/13 07:25:04;;;;;;;10.45;2.00;;;14.00;99.90;;;;;;5089171;28;20111;-75
2022/05/13 07:27:30;;;;;;;7.40;2.05;;;13.90;99.90;;;;;;5089362;28;20113;-73
2022/05/13 07:29:56;;;;;;;7.55;1.60;;;14.10;99.90;;;;;;5071302;28;20421;-70
2022/05/13 07:32:21;;;;;;;8.45;1.90;;;14.20;99.90;;;;;;5083166;28;20048;-75
2022/05/13 07:34:47;;;;;;;6.78;1.95;;;14.30;99.90;;;;;;5072856;28;20058;-70
2022/05/13 07:37:13;;;;;;;10.15;1.98;;;14.50;99.90;;;;;;5090053;28;20079;-77
2022/05/13 07:42:23;;;;;;;11.18;1.83;;;14.40;99.90;;;;;;5086681;28;20540;-79
2022/05/13 07:44:49;;;;;;;9.30;1.52;;;14.50;99.90;;;;;;5069228;28;20060;-78
2022/05/13 07:47:17;;;;;;;8.25;2.42;;;14.40;99.90;;;;;;5089659;28;20055;-77
2022/05/13 07:49:43;;;;;;;14.15;1.70;;;14.60;99.90;;;;;;5089382;28;20051;-77
2022/05/13 07:52:09;;;;;;;6.53;1.50;;;14.80;99.90;;;;;;5089987;28;20044;-74
2022/05/13 07:54:35;;;;;;;11.60;1.60;;;14.90;99.90;;;;;;5088975;28;20092;-75
2022/05/13 07:57:02;;;;;;;11.05;1.92;;;14.80;99.90;;;;;;5092986;28;20060;-74
2022/05/13 07:59:30;;;;;;;9.43;2.17;;;14.70;99.90;;;;;;5073340;28;20056;-70
2022/05/13 08:01:56;;;;;;;11.88;1.85;;;14.50;99.90;;;;;;5082152;28;20557;-78
2022/05/13 08:04:22;;;;;;;6.88;1.55;;;14.50;99.90;;;;;;5073531;28;20052;-74
2022/05/13 08:06:47;;;;;;;7.65;1.90;;;14.60;99.90;;;;;;5074906;28;20048;-69
2022/05/13 08:09:13;;;;;;;6.75;2.03;;;14.40;99.90;;;;;;5093230;28;20480;-69
2022/05/13 08:11:39;;;;;;;8.63;1.42;;;14.50;99.90;;;;;;5075078;28;20044;-70
2022/05/13 08:14:04;;;;;;;14.90;2.42;;;14.60;99.90;;;;;;5074848;28;20373;-68
2022/05/13 08:16:32;;;;;;;8.18;1.73;;;14.60;99.90;;;;;;5092634;28;20035;-73
2022/05/13 08:19:02;;;;;;;8.70;1.65;;;14.30;99.90;;;;;;5074008;28;20147;-77
2022/05/13 08:21:27;;;;;;;5.05;1.50;;;14.20;99.90;;;;;;5092610;28;20506;-73
2022/05/13 08:23:53;;;;;;;12.95;1.67;;;14.20;99.90;;;;;;5074501;28;20034;-73
2022/05/13 08:26:19;;;;;;;11.57;2.00;;;14.50;99.90;;;;;;5090938;28;20059;-76
2022/05/13 08:28:45;;;;;;;7.03;1.75;;;15.00;99.90;;;;;;5092992;28;20079;-78
2022/05/13 08:31:13;;;;;;;8.30;1.77;;;15.00;99.90;;;;;;5072527;28;20498;-74
2022/05/13 08:33:39;;;;;;;11.38;1.45;;;14.90;99.90;;;;;;5092970;28;20076;-75
2022/05/13 08:36:06;;;;;;;5.78;1.17;;;14.90;99.90;;;;;;5092589;28;20032;-77
2022/05/13 08:38:35;;;;;;;10.35;1.63;;;14.90;99.90;;;;;;5068203;28;20054;-78
2022/05/13 08:41:07;;;;;;;10.07;1.50;;;14.80;99.90;;;;;;5087192;28;20090;-75
2022/05/13 08:43:46;;;;;;;9.15;1.60;;;14.80;99.90;;;;;;5074414;28;20399;-79
2022/05/13 08:46:30;;;;;;;10.77;1.65;;;14.80;99.90;;;;;;5082783;28;20105;-77
2022/05/13 08:49:29;;;;;;;7.00;1.83;;;14.60;99.90;;;;;;5074378;28;20060;-75
2022/05/13 08:55:30;;;;;;;7.97;1.70;;;14.40;99.90;;;;;;5092314;28;20080;-76
2022/05/13 08:57:57;;;;;;;8.45;1.98;;;14.60;99.90;;;;;;5092258;28;20573;-76
2022/05/13 09:00:34;;;;;;;6.65;1.75;;;15.00;99.90;;;;;;5072416;28;20052;-78
2022/05/13 09:03:22;;;;;;;5.50;1.20;;;15.10;99.90;;;;;;5091812;28;20092;-78
2022/05/13 09:06:44;;;;;;;6.38;2.03;;;15.40;99.90;;;;;;5073124;28;20048;-81
2022/05/13 09:09:12;;;;;;;10.35;1.98;;;15.40;99.90;;;;;;4973593;28;20043;-76
2022/05/13 09:11:52;;;;;;;7.32;1.55;;;15.30;99.90;;;;;;4989284;28;20069;-78
2022/05/13 09:14:18;;;;;;;8.70;2.15;;;15.30;99.90;;;;;;4989970;28;20069;-78
2022/05/13 09:17:26;;;;;;;6.32;1.60;;;15.30;99.90;;;;;;4970784;28;20034;-85
2022/05/13 09:20:02;;;;;;;9.68;1.23;;;15.30;99.90;;;;;;4989789;28;20059;-73
2022/05/13 09:22:52;;;;;;;4.20;1.10;;;15.30;99.90;;;;;;4989505;28;20058;-79
2022/05/13 09:25:54;;;;;;;6.90;1.35;;;15.30;99.90;;;;;;4989773;28;20113;-74
2022/05/13 09:28:20;;;;;;;7.32;1.50;;;15.30;99.90;;;;;;4912574;29;20143;-78
2022/05/13 09:30:49;;;;;;;9.32;1.60;;;15.30;99.90;;;;;;4931848;29;20055;-81
2022/05/13 09:33:26;;;;;;;6.38;1.52;;;15.20;99.90;;;;;;4931783;29;20423;-77
2022/05/13 09:36:07;;;;;;;8.05;1.23;;;15.10;99.90;;;;;;4915700;29;20051;-80
2022/05/13 09:38:42;;;;;;;6.78;1.38;;;15.00;99.90;;;;;;4914726;29;20064;-78
2022/05/13 09:41:11;;;;;;;5.28;1.30;;;14.90;99.90;;;;;;5007120;28;20120;-80
2022/05/13 09:43:58;;;;;;;8.10;1.70;;;14.80;99.90;;;;;;4992843;28;20482;-79
2022/05/13 09:46:42;;;;;;;8.82;1.65;;;15.00;99.90;;;;;;5008721;28;20461;-77
2022/05/13 09:49:33;;;;;;;8.95;1.50;;;15.20;99.90;;;;;;5008253;28;20803;-80
2022/05/13 09:52:10;;;;;;;6.55;1.70;;;15.40;99.90;;;;;;5008466;28;20062;-79
2022/05/13 09:54:38;;;;;;;6.78;1.50;;;15.50;99.90;;;;;;4992181;28;20045;-79
2022/05/13 09:57:12;;;;;;;5.82;1.58;;;15.50;99.90;;;;;;5008180;28;20088;-80
2022/05/13 10:00:03;;;;;;;8.68;2.15;;;15.50;99.90;;;;;;5008106;28;20054;-77
2022/05/13 10:02:29;;;;;;;8.30;2.08;;;15.60;99.90;;;;;;5008650;28;20069;-76
2022/05/13 10:05:19;;;;;;;8.00;1.60;;;15.80;99.90;;;;;;5025284;28;20495;-78
2022/05/13 10:08:01;;;;;;;6.13;1.70;;;15.90;99.90;;;;;;5090481;28;20047;-76
2022/05/13 10:16:15;;;;;;;7.68;2.15;;;16.50;99.90;;;;;;5069260;28;20052;-79
2022/05/13 10:18:50;;;;;;;8.18;1.80;;;16.70;99.90;;;;;;5070012;28;20153;-80
2022/05/13 10:21:21;;;;;;;8.77;1.60;;;16.80;99.90;;;;;;5072306;28;20113;-80
2022/05/13 10:24:13;;;;;;;9.10;1.80;;;16.50;99.90;;;;;;5070600;28;20434;-80
2022/05/13 10:26:40;;;;;;;8.07;1.98;;;16.20;99.90;;;;;;4988785;28;20069;-78
2022/05/13 10:29:09;;;;;;;8.98;1.65;;;16.20;99.90;;;;;;4988203;28;20050;-81
2022/05/13 10:31:41;;;;;;;11.95;1.90;;;16.10;99.90;;;;;;4988417;28;20065;-77
2022/05/13 10:34:28;;;;;;;8.77;1.80;;;16.10;99.90;;;;;;4978664;28;20046;-77
2022/05/13 10:37:08;;;;;;;7.78;2.00;;;16.00;99.90;;;;;;4972324;28;20054;-81
2022/05/13 10:39:47;;;;;;;12.20;2.28;;;15.90;99.90;;;;;;4971973;28;20058;-80
2022/05/13 10:42:22;;;;;;;12.15;1.52;;;16.30;99.90;;;;;;4991742;28;20053;-76
2022/05/13 10:45:12;;;;;;;9.38;1.80;;;16.70;99.90;;;;;;4990022;28;20050;-71
2022/05/13 10:47:43;;;;;;;8.80;1.70;;;16.70;99.90;;;;;;4991143;28;20437;-75
2022/05/13 10:50:21;;;;;;;6.25;1.70;;;16.40;99.90;;;;;;5007830;28;20058;-75
2022/05/13 10:53:08;;;;;;;8.35;1.83;;;16.60;99.90;;;;;;4991765;28;20517;-80
2022/05/13 10:56:01;;;;;;;5.13;1.30;;;16.50;99.90;;;;;;4991544;28;20492;-75
2022/05/13 10:58:53;;;;;;;5.15;1.30;;;16.50;99.90;;;;;;4991375;28;20085;-75
2022/05/13 11:01:28;;;;;;;4.75;1.50;;;16.50;99.90;;;;;;4980888;28;20057;-78
2022/05/13 11:03:58;;;;;;;7.72;1.00;;;16.40;99.90;;;;;;5034493;28;20162;-74
2022/05/13 11:06:46;;;;;;;4.03;1.25;;;16.20;99.90;;;;;;5088756;28;20444;-79
2022/05/13 11:09:41;;;;;;;4.57;1.25;;;16.00;99.90;;;;;;5085874;28;20048;-75
2022/05/13 11:12:41;;;;;;;5.97;1.10;;;15.90;99.90;;;;;;5072009;28;20056;-76
2022/05/13 11:15:32;;;;;;;8.05;1.48;;;15.70;99.90;;;;;;5085598;28;20056;-76
2022/05/13 11:18:35;;;;;;;7.30;1.20;;;15.60;99.90;;;;;;5090041;28;20047;-73
2022/05/13 11:21:18;;;;;;;7.90;1.23;;;15.50;99.90;;;;;;5067382;28;20032;-76
2022/05/13 11:25:54;;;;;;;5.45;1.20;;;15.50;99.90;;;;;;5051448;28;20071;-78
2022/05/13 11:26:45;;;;;;;6.50;1.30;;;15.60;99.90;;;;;;5069413;28;20084;-67
2022/05/13 11:29:25;;;;;;;2.83;1.17;;;15.60;99.90;;;;;;5051355;28;20099;-79
2022/05/13 11:32:16;;;;;;;10.73;1.55;;;15.80;99.90;;;;;;5073500;28;20094;-77
2022/05/13 11:34:58;;;;;;;7.15;1.50;;;16.00;99.90;;;;;;5055500;28;20106;-74
2022/05/13 11:37:29;;;;;;;7.32;1.50;;;16.30;99.90;;;;;;5093041;28;20055;-76
2022/05/13 11:40:14;;;;;;;5.10;1.23;;;16.40;99.90;;;;;;5071568;28;20056;-72
2022/05/13 11:46:16;;;;;;;4.70;1.23;;;16.90;99.90;;;;;;5050668;28;20056;-76
2022/05/13 11:48:46;;;;;;;9.07;1.50;;;16.60;99.90;;;;;;5033821;28;20524;-74
2022/05/13 11:51:24;;;;;;;4.95;1.05;;;16.60;99.90;;;;;;5050630;28;20590;-77
2022/05/13 11:54:11;;;;;;;7.25;1.10;;;16.80;99.90;;;;;;5050423;28;20075;-74
2022/05/13 11:56:38;;;;;;;5.28;0.93;;;17.10;99.90;;;;;;5050061;28;20053;-74
2022/05/13 11:59:37;;;;;;;6.03;1.38;;;17.20;99.90;;;;;;5050117;28;20114;-75
2022/05/13 12:02:08;;;;;;;4.22;0.77;;;17.00;99.90;;;;;;5050056;28;20583;-74
2022/05/13 12:04:37;;;;;;;6.25;1.00;;;17.10;99.90;;;;;;5050382;28;20139;-77
2022/05/13 12:07:26;;;;;;;9.95;1.30;;;17.00;99.90;;;;;;5050414;28;20488;-74
2022/05/13 12:09:54;;;;;;;5.57;1.00;;;17.10;99.90;;;;;;5033880;28;20052;-73
2022/05/13 12:12:37;;;;;;;4.43;1.10;;;17.10;99.90;;;;;;5048096;28;20110;-76
2022/05/13 12:15:21;;;;;;;7.78;1.27;;;17.10;99.90;;;;;;5050236;28;20049;-78
2022/05/13 12:18:02;;;;;;;6.53;1.60;;;17.20;99.90;;;;;;5033604;28;20103;-74
2022/05/13 12:20:53;;;;;;;7.75;1.80;;;17.00;99.90;;;;;;5050265;28;20057;-77
2022/05/13 12:23:34;;;;;;;5.55;1.70;;;17.10;99.90;;;;;;5080553;28;20060;-70
2022/05/13 12:26:02;;;;;;;5.20;1.42;;;17.30;99.90;;;;;;5072646;28;20396;-75
2022/05/13 12:28:39;;;;;;;10.68;2.05;;;17.50;99.90;;;;;;5054243;28;20535;-79
2022/05/13 12:31:27;;;;;;;5.22;1.65;;;17.30;99.90;;;;;;5072527;28;20044;-78
2022/05/13 12:39:52;;;;;;;9.20;1.70;;;16.80;99.90;;;;;;5072130;28;20512;-77
2022/05/13 12:42:39;;;;;;;9.88;1.90;;;16.70;99.90;;;;;;5071205;28;20044;-76
2022/05/13 12:45:08;;;;;;;7.53;1.75;;;16.60;99.90;;;;;;5054102;28;20080;-76
2022/05/13 12:47:56;;;;;;;14.57;2.70;;;16.60;99.90;;;;;;5071893;28;20396;-76
2022/05/13 12:50:45;;;;;;;11.55;2.38;;;16.80;99.90;;;;;;5070713;28;20060;-79
2022/05/13 12:53:45;;;;;;;9.32;1.95;;;17.00;99.90;;;;;;5072110;28;20048;-75
2022/05/13 12:56:18;;;;;;;7.20;1.58;;;17.00;99.90;;;;;;4974187;28;20065;-76
2022/05/13 12:58:50;;;;;;;8.25;1.60;;;17.20;99.90;;;;;;4973592;28;20058;-76
2022/05/13 13:01:17;;;;;;;9.98;1.60;;;17.20;99.90;;;;;;4990384;28;20069;-76
2022/05/13 13:03:45;;;;;;;4.95;1.50;;;17.50;99.90;;;;;;4990248;28;20073;-76
2022/05/13 13:06:17;;;;;;;11.52;1.50;;;17.60;99.90;;;;;;4990065;28;20713;-79
2022/05/13 13:08:46;;;;;;;10.85;2.03;;;17.50;99.90;;;;;;4990063;28;20585;-78
2022/05/13 13:11:22;;;;;;;10.70;2.08;;;17.40;99.90;;;;;;4990118;28;20046;-76
2022/05/13 13:14:12;;;;;;;9.57;1.45;;;17.20;99.90;;;;;;4990403;28;20410;-75
2022/05/13 13:16:43;;;;;;;9.93;2.05;;;17.20;99.90;;;;;;4990087;28;20061;-79
2022/05/13 13:19:11;;;;;;;9.27;1.50;;;16.90;99.90;;;;;;4973755;28;20558;-77
2022/05/13 13:21:37;;;;;;;4.82;1.10;;;17.10;99.90;;;;;;4989791;28;20124;-74
2022/05/13 13:24:12;;;;;;;7.25;1.55;;;17.00;99.90;;;;;;4984322;28;20085;-77
2022/05/13 13:26:38;;;;;;;5.65;1.52;;;17.40;99.90;;;;;;5009050;28;20563;-79
2022/05/13 13:29:05;;;;;;;10.73;1.77;;;17.50;99.90;;;;;;4992515;28;20054;-83
2022/05/13 13:31:37;;;;;;;10.68;2.25;;;17.50;99.90;;;;;;4992756;28;20061;-79
2022/05/13 13:34:04;;;;;;;15.52;2.13;;;17.40;99.90;;;;;;5059317;28;20396;-80
2022/05/13 13:36:32;;;;;;;8.68;1.98;;;17.50;99.90;;;;;;5071294;28;20048;-80